Date,TemperatureHighF,TemperatureAvgF,TemperatureLowF,DewpointHighF,DewpointAvgF,DewpointLowF,HumidityHigh,HumidityAvg,HumidityLow,PressureMaxIn,PressureMinIn,WindSpeedMaxMPH,WindSpeedAvgMPH,GustSpeedMaxMPH,PrecipitationSumIn
2012-1-9,-200.0,0.0,200.0,-99.9,-99.9,-99.9,0,0,100,30.21,30.12,0,-999,0,0.00
2012-1-10,-200.0,0.0,200.0,-99.9,-99.9,-99.9,0,0,100,30.23,30.20,0,-999,0,0.00
2012-1-11,-200.0,0.0,200.0,-99.9,-99.9,-99.9,0,0,100,30.28,30.20,0,-999,0,0.00
2012-1-12,-200.0,0.0,200.0,-99.9,-99.9,-99.9,0,0,100,30.23,30.14,0,-999,0,0.00
2012-1-13,65.3,7.6,60.6,56.0,-81.2,-99.9,85,9,69,30.38,30.33,0,-879,0,0.00
2012-1-16,-200.0,0.0,200.0,-99.9,-99.9,-99.9,0,0,100,30.04,29.98,0,-999,0,0.00
2012-1-17,-200.0,0.0,200.0,-99.9,-99.9,-99.9,0,0,100,30.02,29.92,0,-999,0,0.00
2012-1-18,-200.0,0.0,200.0,-99.9,-99.9,-99.9,0,0,100,30.01,29.94,0,-999,0,0.00
2012-1-19,-200.0,0.0,200.0,-99.9,-99.9,-99.9,0,0,100,29.99,29.86,0,-999,0,0.00
2012-1-20,-200.0,0.0,200.0,-99.9,-99.9,-99.9,0,0,100,29.99,29.80,0,-999,0,0.00
2012-1-21,-200.0,0.0,200.0,-99.9,-99.9,-99.9,0,0,100,29.86,29.69,0,-999,0,0.00
2012-1-22,-200.0,0.0,200.0,-99.9,-99.9,-99.9,0,0,100,29.93,29.68,0,-999,0,0.00
2012-1-23,-200.0,0.0,200.0,-99.9,-99.9,-99.9,0,0,100,29.95,29.92,0,-999,0,0.00
2012-1-24,-200.0,0.0,200.0,-99.9,-99.9,-99.9,0,0,100,29.84,29.78,0,-999,0,0.00
2012-1-25,-200.0,0.0,200.0,-99.9,-99.9,-99.9,0,0,100,29.53,29.33,0,-999,0,0.00
2012-1-26,-200.0,0.0,200.0,-99.9,-99.9,-99.9,0,0,100,29.46,29.30,0,-999,0,0.00
2012-1-27,-200.0,0.0,200.0,-99.9,-99.9,-99.9,0,0,100,29.93,29.88,0,-999,0,0.00
2012-1-30,-200.0,0.0,200.0,-99.9,-99.9,-99.9,0,0,100,30.06,30.02,0,-999,0,0.00
2012-1-31,-200.0,0.0,200.0,-99.9,-99.9,-99.9,0,0,100,30.16,30.08,0,-999,0,0.00
2012-2-1,-200.0,0.0,200.0,-99.9,-99.9,-99.9,0,0,100,30.41,30.38,0,-999,0,0.00
2012-2-2,-200.0,0.0,200.0,-99.9,-99.9,-99.9,0,0,100,30.47,30.43,0,-999,0,0.00
2012-2-3,-200.0,0.0,200.0,-99.9,-99.9,-99.9,0,0,100,30.48,30.45,0,-999,0,0.00
2012-2-6,-200.0,0.0,200.0,-99.9,-99.9,-99.9,0,0,100,30.36,30.32,0,-999,0,0.00
2012-2-7,-200.0,0.0,200.0,-99.9,-99.9,-99.9,0,0,100,30.49,30.46,0,-999,0,0.00
2012-2-9,-200.0,0.0,200.0,-99.9,-99.9,-99.9,0,0,100,30.42,30.37,0,-999,0,0.00
2012-2-10,-200.0,0.0,200.0,-99.9,-99.9,-99.9,0,0,100,30.32,30.29,0,-999,0,0.00
2012-2-15,-200.0,0.0,200.0,-99.9,-99.9,-99.9,0,0,100,30.35,30.29,0,-999,0,0.00
2012-2-20,-200.0,0.0,200.0,-99.9,-99.9,-99.9,0,0,100,30.11,30.03,0,-999,0,0.00
2012-2-21,-200.0,0.0,200.0,-99.9,-99.9,-99.9,0,0,100,30.01,29.95,0,-999,0,0.00
2012-2-22,-200.0,0.0,200.0,-99.9,-99.9,-99.9,0,0,100,29.70,29.66,0,-999,0,0.00
2012-2-23,-200.0,0.0,200.0,-99.9,-99.9,-99.9,0,0,100,29.99,29.95,0,-999,0,0.00
2012-2-24,-200.0,0.0,200.0,-99.9,-99.9,-99.9,0,0,100,30.20,30.09,0,-999,0,0.00
2012-2-27,-200.0,0.0,200.0,-99.9,-99.9,-99.9,0,0,100,29.99,29.95,0,-999,0,0.00
2012-2-28,-200.0,0.0,200.0,-99.9,-99.9,-99.9,0,0,100,30.05,30.02,0,-999,0,0.00
2012-2-29,-200.0,0.0,200.0,-99.9,-99.9,-99.9,0,0,100,29.98,29.95,0,-999,0,0.00
2012-3-1,-200.0,0.0,200.0,-99.9,-99.9,-99.9,0,0,100,30.05,30.00,0,-999,0,0.00
2012-3-2,-200.0,0.0,200.0,-99.9,-99.9,-99.9,0,0,100,30.07,29.95,0,-999,0,0.00
2012-3-5,-200.0,0.0,200.0,-99.9,-99.9,-99.9,0,0,100,30.23,30.22,0,-999,0,0.00
2012-3-6,-200.0,0.0,200.0,-99.9,-99.9,-99.9,0,0,100,30.05,29.89,0,-999,0,0.00
2012-3-7,-200.0,0.0,200.0,-99.9,-99.9,-99.9,0,0,100,29.84,29.69,0,-999,0,0.00
2012-3-8,-200.0,0.0,200.0,-99.9,-99.9,-99.9,0,0,100,30.21,30.20,0,-999,0,0.00
2012-3-9,-200.0,0.0,200.0,-99.9,-99.9,-99.9,0,0,100,30.23,30.22,0,-999,0,0.00
2012-3-12,-200.0,0.0,200.0,-99.9,-99.9,-99.9,0,0,100,30.41,30.36,0,-999,0,0.00
2012-3-13,-200.0,0.0,200.0,-99.9,-99.9,-99.9,0,0,100,30.38,30.37,0,-999,0,0.00
2012-3-14,-200.0,0.0,200.0,-99.9,-99.9,-99.9,0,0,100,30.24,30.17,0,-999,0,0.00
2012-3-15,-200.0,0.0,200.0,-99.9,-99.9,-99.9,0,0,100,30.02,29.95,0,-999,0,0.00
2012-3-16,-200.0,0.0,200.0,-99.9,-99.9,-99.9,0,0,100,29.73,29.66,0,-999,0,0.00
2012-3-20,-200.0,0.0,200.0,-99.9,-99.9,-99.9,0,0,100,30.34,30.31,0,-999,0,0.00
2012-3-21,-200.0,0.0,200.0,-99.9,-99.9,-99.9,0,0,100,30.35,30.30,0,-999,0,0.00
2012-3-22,-200.0,0.0,200.0,-99.9,-99.9,-99.9,0,0,100,30.19,30.14,0,-999,0,0.00
2012-3-26,-200.0,0.0,200.0,-99.9,-99.9,-99.9,0,0,100,30.40,30.38,0,-999,0,0.00
2012-3-27,-200.0,0.0,200.0,-99.9,-99.9,-99.9,0,0,100,30.44,30.42,0,-999,0,0.00
2012-3-28,-200.0,0.0,200.0,-99.9,-99.9,-99.9,0,0,100,30.40,30.35,0,-999,0,0.00
2012-3-29,-200.0,0.0,200.0,-99.9,-99.9,-99.9,0,0,100,30.35,30.30,0,-999,0,0.00
2012-3-30,-200.0,0.0,200.0,-99.9,-99.9,-99.9,0,0,100,30.23,30.20,0,-999,0,0.00
2012-4-4,-200.0,0.0,200.0,-99.9,-99.9,-99.9,0,0,100,30.06,29.94,0,-999,0,0.00
2012-4-5,-200.0,0.0,200.0,-99.9,-99.9,-99.9,0,0,100,30.10,30.03,0,-999,0,0.00
2012-4-6,-200.0,0.0,200.0,-99.9,-99.9,-99.9,0,0,100,30.04,29.78,0,-999,0,0.00
2012-4-7,-200.0,0.0,200.0,-99.9,-99.9,-99.9,0,0,100,29.88,29.78,0,-999,0,0.00
2012-4-8,-200.0,0.0,200.0,-99.9,-99.9,-99.9,0,0,100,29.87,29.49,0,-999,0,0.00
2012-4-9,-200.0,0.0,200.0,-99.9,-99.9,-99.9,0,0,100,29.48,28.82,0,-999,0,0.00
2012-4-10,-200.0,0.0,200.0,-99.9,-99.9,-99.9,0,0,100,29.16,28.86,0,-999,0,0.00
2012-4-11,57.5,26.8,44.6,42.0,-25.0,-99.9,87,37,51,29.47,29.16,18,-462,18,0.07
2012-4-12,54.4,46.3,38.9,41.0,38.4,35.0,92,76,53,29.56,29.47,7,2,10,0.00
2012-4-13,49.5,45.6,41.2,41.0,36.9,33.0,84,72,55,29.59,29.53,7,2,11,0.02
2012-4-14,48.4,44.1,38.4,38.0,33.3,28.0,89,67,47,29.95,29.59,17,4,20,0.00
2012-4-15,48.6,41.2,33.6,36.0,31.8,29.0,85,70,54,30.18,29.96,9,2,13,0.00
2012-4-16,51.8,46.7,39.1,44.0,36.3,31.0,82,68,56,30.17,29.43,13,3,20,0.02
2012-4-17,52.6,46.6,42.0,47.0,39.6,37.0,90,77,57,29.40,28.77,15,6,23,0.46
2012-4-18,51.5,45.8,41.7,43.0,40.2,37.0,93,81,62,29.00,28.74,12,3,21,0.29
2012-4-19,54.7,46.0,37.3,42.0,38.3,35.0,92,76,55,29.16,29.01,10,2,15,0.02
2012-4-20,53.9,46.6,41.3,41.0,38.1,33.0,87,73,46,29.21,29.13,8,3,14,0.01
2012-4-21,57.9,48.6,41.2,42.0,38.3,33.0,87,69,40,29.40,29.21,12,4,17,0.01
2012-4-22,54.1,47.9,44.0,44.0,41.6,39.0,89,79,61,29.42,29.34,9,3,19,0.16
2012-4-23,51.3,46.2,43.5,45.0,41.7,37.0,94,85,59,29.39,29.18,12,3,16,0.30
2012-4-24,53.8,46.8,40.0,42.0,39.4,37.0,90,77,57,29.40,29.18,7,2,11,0.00
2012-4-25,46.5,44.7,43.0,42.0,40.9,39.0,90,86,81,29.18,28.82,27,10,30,1.23
2012-4-26,48.7,45.7,43.8,44.0,42.0,41.0,92,87,79,29.52,28.90,17,8,23,0.29
2012-4-27,48.5,44.9,41.5,42.0,37.2,32.0,89,75,53,29.95,29.53,11,4,14,0.02
2012-4-28,50.8,45.1,36.8,40.0,36.4,33.0,89,73,56,30.04,29.95,14,5,19,0.01
2012-4-29,45.9,43.1,40.8,40.0,35.8,33.0,91,76,66,30.00,29.61,19,9,27,0.69
2012-4-30,54.7,49.3,42.4,47.0,44.7,40.0,92,84,69,29.89,29.58,17,8,24,0.05
2012-5-1,51.6,49.1,47.5,47.0,45.8,43.0,94,88,77,30.04,29.89,16,6,21,1.39
2012-5-2,52.4,49.6,47.1,48.0,45.9,44.0,95,87,77,30.08,29.98,7,2,9,0.00
2012-5-3,52.2,49.0,45.4,46.0,43.9,41.0,93,83,65,29.97,29.66,8,2,11,0.00
2012-5-4,51.0,47.5,43.3,46.0,42.7,39.0,90,83,72,29.70,29.59,11,3,14,0.00
2012-5-5,47.1,44.3,38.7,42.0,32.5,27.0,91,65,47,29.79,29.70,11,4,19,0.20
2012-5-6,48.2,42.6,32.7,37.0,33.6,28.0,84,71,58,29.80,29.76,7,2,11,0.00
2012-5-7,58.3,48.5,42.4,48.0,42.1,37.0,91,79,56,29.76,29.48,11,3,20,0.27
2012-5-8,56.4,48.7,42.3,46.0,43.5,40.0,93,83,62,29.55,29.43,8,2,13,0.08
2012-5-9,49.7,46.1,40.3,46.0,40.7,35.0,95,82,72,29.59,29.41,14,4,15,0.24
2012-5-10,52.6,49.2,46.6,51.0,47.8,45.0,96,95,90,29.67,29.32,7,1,7,0.53
2012-5-11,53.5,47.4,43.2,45.0,41.2,38.0,94,80,58,30.28,29.68,15,4,19,0.12
2012-5-14,56.0,55.0,52.5,41.0,39.8,39.0,62,57,54,29.74,29.73,10,6,18,0.02
2012-5-15,55.8,50.5,43.1,38.0,35.1,31.0,80,57,42,30.15,29.91,11,5,18,0.00
2012-5-16,53.5,47.8,39.5,43.0,36.7,34.0,83,67,49,30.16,30.01,7,2,10,0.01
2012-5-17,54.5,48.3,44.4,45.0,42.7,40.0,91,81,64,30.01,29.69,8,2,12,0.08
2012-5-18,52.4,48.7,46.5,46.0,44.4,43.0,92,85,72,29.68,29.61,10,5,17,0.20
2012-5-19,50.1,47.2,42.9,46.0,43.2,40.0,93,86,76,29.79,29.65,14,5,19,0.10
2012-5-20,55.4,50.2,44.0,49.0,45.9,41.0,93,85,75,29.78,29.71,8,2,9,0.00
2012-5-21,61.3,55.2,48.6,51.0,47.9,45.0,94,78,58,29.75,29.69,10,2,12,0.00
2012-5-22,67.7,59.0,46.8,56.0,51.4,45.0,93,77,62,29.99,29.75,5,1,7,0.00
2012-5-23,73.1,61.6,51.2,56.0,52.4,49.0,92,74,49,30.17,29.99,7,2,13,0.00
2012-5-24,68.0,60.1,50.0,55.0,51.4,47.0,90,74,48,30.21,30.16,7,2,11,0.00
2012-5-25,69.9,61.8,54.0,58.0,53.6,50.0,86,75,54,30.17,29.99,9,3,13,0.00
2012-5-26,67.7,60.7,54.2,55.0,51.2,49.0,85,71,62,30.03,29.91,10,4,14,0.00
2012-5-27,68.3,60.7,53.3,55.0,51.7,49.0,87,73,61,29.94,29.87,9,3,10,0.00
2012-5-28,73.1,64.5,55.6,55.0,51.9,48.0,88,66,42,29.89,29.84,8,2,13,0.00
2012-5-29,65.0,59.5,52.7,56.0,51.3,47.0,87,74,66,29.90,29.83,7,2,7,0.00
2012-5-30,69.5,60.7,53.6,57.0,54.1,50.0,93,79,59,29.91,29.81,8,2,8,0.20
2012-5-31,63.3,59.4,55.1,58.0,55.2,51.0,92,86,74,29.93,29.87,9,2,13,0.16
2012-6-1,65.4,59.3,55.3,57.0,53.9,48.0,95,82,72,29.96,29.87,7,2,8,0.05
2012-6-2,60.1,55.8,53.0,54.0,50.6,46.0,95,83,65,29.88,29.57,9,4,13,0.48
2012-6-3,53.0,49.8,48.5,52.0,47.4,45.0,96,91,83,29.79,29.51,15,7,23,2.78
2012-6-4,57.1,51.8,45.9,47.0,41.5,35.0,94,70,45,29.92,29.80,9,2,12,0.00
2012-6-5,55.5,51.6,48.6,52.0,46.9,37.0,94,84,62,29.84,29.37,8,2,11,0.04
2012-6-6,66.6,59.2,52.5,53.0,50.7,48.0,95,75,51,29.36,29.26,8,2,11,0.02
2012-6-7,56.8,54.3,51.7,55.0,52.4,49.0,96,93,80,29.28,28.88,15,4,20,1.28
2012-6-8,55.3,52.3,48.7,54.0,50.2,45.0,96,92,86,29.48,28.88,17,6,25,0.79
2012-6-9,64.3,54.4,47.6,47.0,44.9,41.0,90,72,47,29.66,29.49,13,4,19,0.03
2012-6-10,64.7,56.9,47.7,51.0,46.8,43.0,89,70,45,29.66,29.54,9,2,10,0.00
2012-6-11,62.3,57.0,52.6,51.0,47.9,43.0,91,73,52,29.62,29.52,9,3,12,0.00
2012-6-12,57.3,54.3,51.3,51.0,49.0,47.0,90,82,71,29.78,29.63,7,1,8,0.17
2012-6-13,57.2,53.4,50.4,53.0,49.7,47.0,93,87,74,29.81,29.77,6,2,9,0.14
2012-6-14,56.8,53.6,51.0,52.0,50.5,49.0,95,89,77,29.81,29.43,20,6,24,1.23
2012-6-15,61.4,55.4,51.8,55.0,52.3,51.0,95,89,75,29.43,29.20,11,5,22,0.56
2012-6-16,60.8,55.8,52.1,56.0,51.8,48.0,95,86,79,29.63,29.14,11,4,19,0.20
2012-6-17,60.3,53.6,49.4,49.0,46.3,43.0,88,77,55,29.84,29.64,7,2,11,0.01
2012-6-18,62.7,55.9,45.3,52.0,46.8,43.0,92,73,51,29.83,29.76,7,1,13,0.02
2012-6-19,66.0,57.6,48.4,50.0,46.5,43.0,88,68,46,29.87,29.80,8,2,10,0.00
2012-6-20,63.6,56.8,47.7,53.0,48.9,44.0,90,76,61,29.88,29.68,11,2,16,0.08
2012-6-21,60.4,54.9,50.9,56.0,52.7,50.0,96,92,78,29.68,29.35,11,3,14,1.06
2012-6-22,60.9,55.8,52.5,53.0,50.4,46.0,96,83,68,29.72,29.37,22,6,26,0.59
2012-6-23,62.8,56.6,52.0,53.0,49.9,47.0,92,79,58,29.78,29.64,16,5,20,0.05
2012-6-24,67.2,58.6,51.7,55.0,51.4,49.0,94,78,54,29.84,29.62,9,2,14,0.09
2012-6-25,61.8,57.1,51.6,51.0,49.0,46.0,87,75,63,29.91,29.84,8,2,12,0.00
2012-6-26,75.1,64.9,55.4,63.0,57.4,49.0,90,77,65,29.88,29.77,6,2,13,0.00
2012-6-27,76.7,68.3,62.1,63.0,60.7,56.0,91,77,62,29.82,29.64,7,3,13,0.25
2012-6-28,71.8,63.3,57.2,63.0,56.7,51.0,96,80,56,29.64,29.20,16,5,22,0.91
2012-6-29,60.8,58.3,56.5,55.0,53.0,51.0,90,83,76,29.19,29.08,10,3,19,0.06